createdAt,value
2019-02-24T00:00:00.292Z,9.30
2019-02-24T00:04:12.694Z,9.40
2019-02-24T00:08:25.110Z,9.30
2019-02-24T00:12:37.933Z,9.30
2019-02-24T00:16:50.419Z,9.10
2019-02-24T00:21:03.342Z,9.20
2019-02-24T00:25:15.896Z,9.20
2019-02-24T00:29:28.892Z,9.40
2019-02-24T00:33:41.449Z,9.50
2019-02-24T00:37:53.863Z,9.50
2019-02-24T00:42:06.758Z,9.50
2019-02-24T00:46:19.280Z,9.40
2019-02-24T00:50:32.393Z,9.20
2019-02-24T00:54:44.864Z,9.10
2019-02-24T00:58:57.739Z,9.10
2019-02-24T01:03:10.206Z,9.10
2019-02-24T01:07:22.612Z,8.90
2019-02-24T01:11:35.505Z,9.00
2019-02-24T01:15:47.950Z,9.10
2019-02-24T01:20:00.402Z,9.00
2019-02-24T01:24:13.166Z,8.80
2019-02-24T01:28:25.731Z,8.90
2019-02-24T01:32:38.612Z,8.90
2019-02-24T01:36:51.164Z,9.10
2019-02-24T01:41:03.482Z,9.10
2019-02-24T01:45:16.362Z,9.00
2019-02-24T01:49:28.884Z,9.00
2019-02-24T01:53:41.325Z,9.00
2019-02-24T01:57:54.093Z,9.00
2019-02-24T02:02:06.580Z,8.90
2019-02-24T02:06:18.892Z,8.80
2019-02-24T02:10:31.776Z,8.70
2019-02-24T02:14:44.237Z,8.70
2019-02-24T02:18:56.542Z,8.70
2019-02-24T02:23:09.041Z,8.90
2019-02-24T02:27:21.740Z,9.00
2019-02-24T02:31:34.204Z,9.00
2019-02-24T02:35:46.617Z,9.00
2019-02-24T02:39:59.508Z,9.00
2019-02-24T02:44:11.957Z,9.00
2019-02-24T02:48:24.273Z,9.00
2019-02-24T02:52:37.123Z,8.90
2019-02-24T02:56:49.843Z,8.90
2019-02-24T03:01:02.914Z,8.90
2019-02-24T03:05:15.373Z,8.80
2019-02-24T03:09:28.458Z,8.70
2019-02-24T03:13:40.917Z,8.50
2019-02-24T03:17:53.224Z,8.50
2019-02-24T03:22:05.540Z,8.40
2019-02-24T03:26:17.917Z,8.40
2019-02-24T03:30:30.577Z,8.50
2019-02-24T03:34:43.100Z,8.50
2019-02-24T03:38:55.987Z,8.50
2019-02-24T03:43:08.645Z,8.40
2019-02-24T03:47:21.052Z,8.30
2019-02-24T03:51:33.954Z,8.20
2019-02-24T03:55:46.685Z,8.20
2019-02-24T03:59:59.604Z,8.20
2019-02-24T04:04:12.165Z,8.10
2019-02-24T04:08:24.566Z,8.10
2019-02-24T04:12:37.464Z,8.20
2019-02-24T04:16:49.930Z,8.20
2019-02-24T04:21:02.908Z,8.20
2019-02-24T04:25:15.468Z,8.20
2019-02-24T04:29:29.083Z,8.10
2019-02-24T04:33:41.828Z,8.00
2019-02-24T04:37:54.639Z,7.80
2019-02-24T04:42:06.976Z,7.70
2019-02-24T04:46:19.276Z,7.70
2019-02-24T04:50:32.080Z,7.70
2019-02-24T04:54:44.628Z,7.80
2019-02-24T04:58:57.126Z,7.80
2019-02-24T05:03:09.820Z,7.80
2019-02-24T05:07:22.293Z,7.70
2019-02-24T05:11:34.919Z,7.70
2019-02-24T05:15:47.730Z,7.70
2019-02-24T05:20:00.386Z,7.60
2019-02-24T05:24:12.767Z,7.60
2019-02-24T05:28:25.652Z,7.50
2019-02-24T05:32:38.200Z,7.50
2019-02-24T05:36:50.995Z,7.70
2019-02-24T05:41:03.556Z,7.70
2019-02-24T05:45:15.975Z,7.60
2019-02-24T05:49:28.749Z,7.70
2019-02-24T05:53:41.205Z,7.60
2019-02-24T05:57:53.643Z,7.50
2019-02-24T06:02:06.681Z,7.40
2019-02-24T06:06:19.177Z,7.30
2019-02-24T06:10:32.240Z,7.20
2019-02-24T06:14:44.725Z,7.20
2019-02-24T06:18:57.029Z,7.10
2019-02-24T06:23:09.455Z,7.20
2019-02-24T06:27:22.241Z,7.30
2019-02-24T06:31:34.696Z,7.40
2019-02-24T06:35:47.072Z,7.30
2019-02-24T06:39:59.779Z,7.40
2019-02-24T06:44:12.248Z,7.40
2019-02-24T06:48:24.658Z,7.30
2019-02-24T06:52:38.104Z,7.20
2019-02-24T06:56:50.617Z,7.20
2019-02-24T07:01:03.569Z,7.20
2019-02-24T07:05:16.153Z,7.20
2019-02-24T07:09:29.051Z,7.30
2019-02-24T07:13:41.613Z,7.30
2019-02-24T07:17:54.022Z,7.30
2019-02-24T07:22:06.916Z,7.20
2019-02-24T07:26:19.363Z,7.00
2019-02-24T07:30:31.680Z,6.90
2019-02-24T07:34:43.992Z,6.90
2019-02-24T07:38:56.368Z,6.90
2019-02-24T07:43:09.193Z,7.10
2019-02-24T07:47:21.657Z,7.20
2019-02-24T07:51:34.540Z,7.20
2019-02-24T07:55:47.225Z,7.30
2019-02-24T07:59:59.776Z,7.50
2019-02-24T08:04:12.397Z,7.70
2019-02-24T08:08:24.936Z,8.00
2019-02-24T08:12:37.852Z,8.30
2019-02-24T08:16:50.305Z,8.60
2019-02-24T08:21:02.690Z,8.70
2019-02-24T08:25:15.607Z,8.70
2019-02-24T08:29:29.687Z,8.80
2019-02-24T08:33:42.008Z,9.00
2019-02-24T08:37:54.804Z,9.40
2019-02-24T08:42:07.425Z,9.70
2019-02-24T08:46:19.772Z,10.10
2019-02-24T08:50:32.465Z,10.30
2019-02-24T08:54:44.936Z,10.40
2019-02-24T08:58:58.025Z,10.60
2019-02-24T09:03:10.637Z,10.70
2019-02-24T09:07:22.982Z,10.90
2019-02-24T09:11:35.989Z,11.10
2019-02-24T09:15:48.324Z,11.40
2019-02-24T09:20:01.208Z,11.50
2019-02-24T09:24:13.779Z,11.70
2019-02-24T09:28:26.194Z,11.90
2019-02-24T09:32:38.968Z,12.20
2019-02-24T09:36:51.429Z,12.30
2019-02-24T09:41:06.349Z,12.60
2019-02-24T09:45:18.717Z,12.80
2019-02-24T09:49:31.608Z,13.00
2019-02-24T09:53:44.166Z,13.20
2019-02-24T09:57:56.817Z,13.40
2019-02-24T10:02:09.776Z,13.60
2019-02-24T10:06:22.227Z,13.90
2019-02-24T10:10:35.111Z,14.00
2019-02-24T10:14:47.742Z,14.20
2019-02-24T10:19:00.664Z,14.30
2019-02-24T10:23:13.228Z,14.50
2019-02-24T10:27:25.634Z,14.60
2019-02-24T10:31:38.521Z,14.80
2019-02-24T10:35:51.080Z,15.00
2019-02-24T10:40:03.398Z,15.30
2019-02-24T10:44:15.910Z,15.50
2019-02-24T10:48:28.697Z,15.70
2019-02-24T10:52:41.156Z,15.80
2019-02-24T10:56:53.569Z,15.90
2019-02-24T11:01:06.620Z,15.70
2019-02-24T11:05:19.225Z,15.50
2019-02-24T11:09:32.108Z,15.20
2019-02-24T11:13:44.665Z,15.10
2019-02-24T11:17:57.041Z,15.10
2019-02-24T11:22:09.971Z,15.00
2019-02-24T11:26:22.654Z,15.20
2019-02-24T11:30:35.508Z,15.30
2019-02-24T11:34:47.979Z,15.40
2019-02-24T11:39:00.380Z,15.40
2019-02-24T11:43:13.267Z,15.40
2019-02-24T11:47:25.900Z,15.40
2019-02-24T11:51:38.720Z,15.40
2019-02-24T11:55:51.384Z,15.40
2019-02-24T12:00:06.813Z,15.40
2019-02-24T12:04:19.820Z,15.40
2019-02-24T12:08:32.317Z,15.40
2019-02-24T12:12:45.410Z,15.20
2019-02-24T12:16:57.924Z,15.20
2019-02-24T12:21:10.734Z,15.10
2019-02-24T12:25:23.415Z,15.10
2019-02-24T12:29:38.245Z,15.00
2019-02-24T12:33:50.807Z,15.20
2019-02-24T12:38:03.212Z,15.20
2019-02-24T12:42:16.105Z,15.20
2019-02-24T12:46:28.660Z,15.00
2019-02-24T12:50:41.039Z,14.90
2019-02-24T12:54:53.858Z,15.00
2019-02-24T12:59:06.483Z,15.00
2019-02-24T13:03:23.970Z,15.00
2019-02-24T13:07:33.249Z,15.00
2019-02-24T13:11:45.712Z,15.10
2019-02-24T13:15:58.125Z,15.10
2019-02-24T13:20:11.463Z,15.00
2019-02-24T13:24:23.881Z,15.00
2019-02-24T13:28:37.015Z,15.10
2019-02-24T13:32:50.005Z,15.10
2019-02-24T13:37:02.665Z,15.00
2019-02-24T13:41:15.082Z,14.90
2019-02-24T13:45:27.493Z,14.90
2019-02-24T13:49:43.044Z,14.90
2019-02-24T13:53:55.682Z,14.90
2019-02-24T13:58:08.012Z,14.90
2019-02-24T14:02:24.072Z,15.10
2019-02-24T14:06:35.067Z,14.80
2019-02-24T14:10:47.995Z,14.90
2019-02-24T14:15:00.696Z,14.80
2019-02-24T14:19:13.660Z,14.80
2019-02-24T14:23:26.384Z,14.60
2019-02-24T14:27:38.812Z,14.40
2019-02-24T14:31:51.607Z,14.40
2019-02-24T14:36:04.165Z,14.30
2019-02-24T14:40:17.248Z,14.40
2019-02-24T14:44:29.811Z,14.60
2019-02-24T14:48:42.118Z,14.70
2019-02-24T14:52:55.014Z,14.70
2019-02-24T14:57:07.637Z,14.70
2019-02-24T15:01:20.038Z,14.40
2019-02-24T15:05:32.977Z,14.50
2019-02-24T15:09:45.429Z,14.30
2019-02-24T15:13:58.315Z,14.20
2019-02-24T15:18:10.872Z,14.20
2019-02-24T15:22:23.187Z,14.00
2019-02-24T15:26:35.578Z,14.00
2019-02-24T15:30:48.283Z,14.10
2019-02-24T15:35:00.748Z,14.00
2019-02-24T15:39:13.732Z,14.10
2019-02-24T15:43:26.292Z,13.90
2019-02-24T15:47:38.796Z,13.80
2019-02-24T15:51:51.597Z,13.90
2019-02-24T15:56:05.043Z,13.90
2019-02-24T16:00:18.173Z,13.90
2019-02-24T16:04:31.053Z,13.90
2019-02-24T16:08:43.652Z,13.80
2019-02-24T16:12:56.538Z,13.80
2019-02-24T16:17:09.200Z,13.70
2019-02-24T16:21:22.185Z,13.70
2019-02-24T16:25:34.736Z,13.60
2019-02-24T16:29:47.403Z,13.50
2019-02-24T16:34:00.148Z,13.40
2019-02-24T16:38:12.616Z,13.20
2019-02-24T16:42:25.593Z,13.10
2019-02-24T16:46:38.059Z,13.10
2019-02-24T16:50:50.365Z,13.20
2019-02-24T16:55:03.248Z,13.10
2019-02-24T16:59:15.811Z,13.10
2019-02-24T17:03:28.347Z,13.10
2019-02-24T17:07:41.223Z,13.00
2019-02-24T17:11:53.674Z,12.90
2019-02-24T17:16:06.289Z,12.80
2019-02-24T17:20:19.541Z,12.70
2019-02-24T17:24:31.933Z,12.50
2019-02-24T17:28:44.727Z,12.20
2019-02-24T17:32:57.249Z,12.10
2019-02-24T17:37:10.059Z,12.00
2019-02-24T17:41:22.524Z,11.80
2019-02-24T17:45:34.957Z,11.60
2019-02-24T17:49:47.833Z,11.50
2019-02-24T17:54:00.286Z,11.40
2019-02-24T17:58:12.693Z,11.20
2019-02-24T18:02:25.653Z,11.20
2019-02-24T18:06:38.218Z,11.10
2019-02-24T18:10:53.705Z,11.00
2019-02-24T18:15:08.375Z,10.80
2019-02-24T18:19:20.711Z,10.70
2019-02-24T18:23:33.597Z,10.60
2019-02-24T18:27:46.064Z,10.50
2019-02-24T18:31:58.949Z,10.50
2019-02-24T18:36:13.285Z,10.40
2019-02-24T18:40:26.237Z,10.30
2019-02-24T18:44:38.784Z,10.20
2019-02-24T18:48:51.197Z,10.10
2019-02-24T18:53:06.426Z,10.10
2019-02-24T18:57:22.871Z,10.00
2019-02-24T19:01:36.015Z,9.80
2019-02-24T19:05:48.674Z,9.80
2019-02-24T19:10:01.532Z,9.60
2019-02-24T19:14:13.988Z,9.20
2019-02-24T19:18:26.552Z,9.00
2019-02-24T19:22:39.300Z,9.00
2019-02-24T19:26:51.762Z,9.10
2019-02-24T19:31:04.169Z,9.10
2019-02-24T19:35:16.745Z,9.00
2019-02-24T19:39:29.414Z,9.00
2019-02-24T19:43:41.926Z,9.00
2019-02-24T19:47:54.455Z,9.00
2019-02-24T19:52:07.160Z,8.90
2019-02-24T19:56:19.580Z,8.80
2019-02-24T20:00:31.893Z,8.70
2019-02-24T20:04:44.272Z,8.60
2019-02-24T20:08:57.204Z,8.50
2019-02-24T20:13:09.448Z,8.00
2019-02-24T20:17:21.766Z,7.70
2019-02-24T20:21:34.647Z,7.70
2019-02-24T20:25:47.713Z,7.60
2019-02-24T20:30:00.505Z,7.50
2019-02-24T20:34:12.889Z,7.30
2019-02-24T20:38:25.335Z,7.10
2019-02-24T20:42:38.708Z,6.90
2019-02-24T20:46:51.121Z,6.80
2019-02-24T20:51:03.910Z,6.50
2019-02-24T20:55:16.365Z,6.50
2019-02-24T20:59:29.914Z,6.40
2019-02-24T21:03:42.788Z,6.50
2019-02-24T21:07:55.637Z,6.60
2019-02-24T21:12:08.613Z,6.70
2019-02-24T21:16:21.109Z,6.80
2019-02-24T21:20:33.648Z,6.90
2019-02-24T21:24:46.513Z,6.90
2019-02-24T21:28:58.974Z,7.00
2019-02-24T21:33:11.386Z,7.10
2019-02-24T21:37:24.172Z,7.20
2019-02-24T21:41:36.693Z,7.40
2019-02-24T21:45:49.082Z,7.50
2019-02-24T21:50:01.863Z,7.60
2019-02-24T21:54:14.349Z,7.60
2019-02-24T21:58:27.224Z,7.70
2019-02-24T22:02:39.894Z,7.80
2019-02-24T22:06:52.329Z,7.80
2019-02-24T22:11:05.576Z,7.70
2019-02-24T22:15:18.769Z,7.70
2019-02-24T22:19:31.128Z,7.60
2019-02-24T22:23:43.545Z,7.50
2019-02-24T22:27:55.853Z,7.20
2019-02-24T22:32:08.552Z,7.00
2019-02-24T22:36:21.017Z,6.60
2019-02-24T22:40:34.007Z,6.30
2019-02-24T22:44:46.640Z,6.10
2019-02-24T22:48:59.553Z,6.00
2019-02-24T22:53:12.100Z,6.10
2019-02-24T22:57:24.502Z,6.20
2019-02-24T23:01:40.532Z,6.10
2019-02-24T23:05:53.099Z,6.00
2019-02-24T23:10:06.300Z,6.00
2019-02-24T23:14:18.807Z,6.00
2019-02-24T23:18:32.350Z,6.20
2019-02-24T23:22:45.311Z,6.30
2019-02-24T23:26:57.761Z,6.40
2019-02-24T23:31:10.105Z,6.50
2019-02-24T23:35:22.491Z,6.60
2019-02-24T23:39:35.986Z,6.70
2019-02-24T23:43:48.382Z,6.70
2019-02-24T23:48:03.345Z,6.60
2019-02-24T23:52:18.587Z,6.30
2019-02-24T23:56:31.291Z,6.20
